Richland, Mississippi
Current Conditions -  °F | °C
As of 6:54 AM on Wednesday 22 Oct 2014 (Local Time) from KJAN Reporting Station
Clear Clear  
Wind Chill: 47°   Ceiling: Unl
Heat Index: 49°   Visibility: 7mi
Dew Point: 48°   Wind: 5mph
Humidity: 97%   Direction: 30°NNE
Pressure: 30.12"   Gusts: NA
Location:  32.2326°N, 90.165°W
Report Text: KJAN 221154Z 03004KT 7SM CLR 09/09 A3012 RMK AO2 SLP196 T00940089 10133 20078 53012
Loading
Personal Weather Stations






























Interactive Weather Map
Tropical Storm Tracking
New forecast layout! Learn more

10-Day Weather Forecast

Advertisements
Track Severe Weather on mobile